Terminal Aerodrome Forecast
Issued by NWS Sioux Falls, SD

Current Version | Previous Version | Text Only | Print | Product List | Glossary On
Versions: 1 2 3 4 5 6 7 8 9 10 11 12 13 14 15 16 17 18
420
FTUS43 KFSD 171722
TAFHON
TAF
KHON 171722Z 1718/1818 36010KT P6SM OVC080
     FM180600 33008KT P6SM OVC060
     FM180900 32007KT P6SM SCT100
     FM181400 32011G17KT P6SM SCT150=

USA.gov is the U.S. government's official web portal to all federal, state and local government web resources and services.